Beloit, Kansas
Current Conditions -  °F | °C
As of 6:22 AM on Thursday 23 Oct 2014 (Local Time) from KCNK Reporting Station
Overcast Overcast  
Wind Chill: 16°   Ceiling: 1400
Heat Index: 16°   Visibility: 10mi
Dew Point: 16°   Wind: 5mph
Humidity: 97%   Direction: 220°SW
Pressure: 30.06"   Gusts: NA
Location:  39.46°N, 98.11°W
Report Text: KCNK 231122Z AUTO 22004KT 10SM OVC014 16/16 A3006 RMK AO2 T01610156
Loading
Personal Weather Stations






























Interactive Weather Map New forecast layout! Learn more

10-Day Weather Forecast

Advertisements
Track Severe Weather on mobile